sensor_id;sensor_type;location;lat;lon;timestamp;temperature;humidity
12887;DHT22;6511;49.746;6.094;2023-05-28T00:00:50;10.90;99.90
12887;DHT22;6511;49.746;6.094;2023-05-28T00:03:15;10.80;99.90
12887;DHT22;6511;49.746;6.094;2023-05-28T00:05:43;10.80;99.90
12887;DHT22;6511;49.746;6.094;2023-05-28T00:08:09;10.80;99.90
12887;DHT22;6511;49.746;6.094;2023-05-28T00:10:34;10.80;99.90
12887;DHT22;6511;49.746;6.094;2023-05-28T00:13:00;10.80;99.90
12887;DHT22;6511;49.746;6.094;2023-05-28T00:15:25;10.70;99.90
12887;DHT22;6511;49.746;6.094;2023-05-28T00:17:51;10.70;99.90
12887;DHT22;6511;49.746;6.094;2023-05-28T00:20:20;10.70;99.90
12887;DHT22;6511;49.746;6.094;2023-05-28T00:22:45;10.70;99.90
12887;DHT22;6511;49.746;6.094;2023-05-28T00:25:11;10.70;99.90
12887;DHT22;6511;49.746;6.094;2023-05-28T00:27:37;10.70;99.90
12887;DHT22;6511;49.746;6.094;2023-05-28T00:30:03;10.70;99.90
12887;DHT22;6511;49.746;6.094;2023-05-28T00:32:28;10.60;99.90
12887;DHT22;6511;49.746;6.094;2023-05-28T00:34:54;10.50;99.90
12887;DHT22;6511;49.746;6.094;2023-05-28T00:37:19;10.40;99.90
12887;DHT22;6511;49.746;6.094;2023-05-28T00:39:45;10.40;99.90
12887;DHT22;6511;49.746;6.094;2023-05-28T00:42:10;10.40;99.90
12887;DHT22;6511;49.746;6.094;2023-05-28T00:44:37;10.40;99.90
12887;DHT22;6511;49.746;6.094;2023-05-28T00:47:06;10.30;99.90
12887;DHT22;6511;49.746;6.094;2023-05-28T00:49:32;10.30;99.90
12887;DHT22;6511;49.746;6.094;2023-05-28T00:51:58;10.20;99.90
12887;DHT22;6511;49.746;6.094;2023-05-28T00:54:23;10.20;99.90
12887;DHT22;6511;49.746;6.094;2023-05-28T00:56:49;10.20;99.90
12887;DHT22;6511;49.746;6.094;2023-05-28T00:59:16;10.20;99.90
12887;DHT22;6511;49.746;6.094;2023-05-28T01:01:42;10.10;99.90
12887;DHT22;6511;49.746;6.094;2023-05-28T01:04:08;10.10;99.90
12887;DHT22;6511;49.746;6.094;2023-05-28T01:06:33;10.00;99.90
12887;DHT22;6511;49.746;6.094;2023-05-28T01:09:04;9.90;99.90
12887;DHT22;6511;49.746;6.094;2023-05-28T01:11:29;9.90;99.90
12887;DHT22;6511;49.746;6.094;2023-05-28T01:13:56;10.00;99.90
12887;DHT22;6511;49.746;6.094;2023-05-28T01:16:21;9.90;99.90
12887;DHT22;6511;49.746;6.094;2023-05-28T01:18:47;9.90;99.90
12887;DHT22;6511;49.746;6.094;2023-05-28T01:21:14;9.80;99.90
12887;DHT22;6511;49.746;6.094;2023-05-28T01:23:43;9.80;99.90
12887;DHT22;6511;49.746;6.094;2023-05-28T01:26:10;9.70;99.90
12887;DHT22;6511;49.746;6.094;2023-05-28T01:28:36;9.80;99.90
12887;DHT22;6511;49.746;6.094;2023-05-28T01:31:01;9.70;99.90
12887;DHT22;6511;49.746;6.094;2023-05-28T01:33:27;9.70;99.90
12887;DHT22;6511;49.746;6.094;2023-05-28T01:35:52;9.70;99.90
12887;DHT22;6511;49.746;6.094;2023-05-28T01:38:20;9.70;99.90
12887;DHT22;6511;49.746;6.094;2023-05-28T01:40:47;9.70;99.90
12887;DHT22;6511;49.746;6.094;2023-05-28T01:43:13;9.60;99.90
12887;DHT22;6511;49.746;6.094;2023-05-28T01:45:39;9.60;99.90
12887;DHT22;6511;49.746;6.094;2023-05-28T01:48:05;9.70;99.90
12887;DHT22;6511;49.746;6.094;2023-05-28T01:50:31;9.60;99.90
12887;DHT22;6511;49.746;6.094;2023-05-28T01:52:58;9.50;99.90
12887;DHT22;6511;49.746;6.094;2023-05-28T01:55:23;9.50;99.90
12887;DHT22;6511;49.746;6.094;2023-05-28T01:57:49;9.40;99.90
12887;DHT22;6511;49.746;6.094;2023-05-28T02:00:15;9.50;99.90
12887;DHT22;6511;49.746;6.094;2023-05-28T02:02:41;9.60;99.90
12887;DHT22;6511;49.746;6.094;2023-05-28T02:05:08;9.50;99.90
12887;DHT22;6511;49.746;6.094;2023-05-28T02:07:33;9.50;99.90
12887;DHT22;6511;49.746;6.094;2023-05-28T02:09:59;9.40;99.90
12887;DHT22;6511;49.746;6.094;2023-05-28T02:12:24;9.30;99.90
12887;DHT22;6511;49.746;6.094;2023-05-28T02:14:50;9.30;99.90
12887;DHT22;6511;49.746;6.094;2023-05-28T02:17:15;9.30;99.90
12887;DHT22;6511;49.746;6.094;2023-05-28T02:19:42;9.30;99.90
12887;DHT22;6511;49.746;6.094;2023-05-28T02:22:08;9.30;99.90
12887;DHT22;6511;49.746;6.094;2023-05-28T02:24:40;9.30;99.90
12887;DHT22;6511;49.746;6.094;2023-05-28T02:27:06;9.30;99.90
12887;DHT22;6511;49.746;6.094;2023-05-28T02:29:33;9.40;99.90
12887;DHT22;6511;49.746;6.094;2023-05-28T02:31:59;9.30;99.90
12887;DHT22;6511;49.746;6.094;2023-05-28T02:34:25;9.20;99.90
12887;DHT22;6511;49.746;6.094;2023-05-28T02:36:50;9.10;99.90
12887;DHT22;6511;49.746;6.094;2023-05-28T02:39:18;9.10;99.90
12887;DHT22;6511;49.746;6.094;2023-05-28T02:41:43;9.00;99.90
12887;DHT22;6511;49.746;6.094;2023-05-28T02:44:09;9.00;99.90
12887;DHT22;6511;49.746;6.094;2023-05-28T02:46:34;9.00;99.90
12887;DHT22;6511;49.746;6.094;2023-05-28T02:49:00;9.00;99.90
12887;DHT22;6511;49.746;6.094;2023-05-28T02:51:25;8.90;99.90
12887;DHT22;6511;49.746;6.094;2023-05-28T02:53:51;8.90;99.90
12887;DHT22;6511;49.746;6.094;2023-05-28T02:56:16;8.90;99.90
12887;DHT22;6511;49.746;6.094;2023-05-28T02:58:42;8.90;99.90
12887;DHT22;6511;49.746;6.094;2023-05-28T03:01:07;9.00;99.90
12887;DHT22;6511;49.746;6.094;2023-05-28T03:03:33;9.00;99.90
12887;DHT22;6511;49.746;6.094;2023-05-28T03:05:58;9.00;99.90
12887;DHT22;6511;49.746;6.094;2023-05-28T03:08:24;9.00;99.90
12887;DHT22;6511;49.746;6.094;2023-05-28T03:10:49;8.90;99.90
12887;DHT22;6511;49.746;6.094;2023-05-28T03:13:15;8.90;99.90
12887;DHT22;6511;49.746;6.094;2023-05-28T03:15:40;8.80;99.90
12887;DHT22;6511;49.746;6.094;2023-05-28T03:18:06;8.80;99.90
12887;DHT22;6511;49.746;6.094;2023-05-28T03:20:32;8.80;99.90
12887;DHT22;6511;49.746;6.094;2023-05-28T03:22:58;8.80;99.90
12887;DHT22;6511;49.746;6.094;2023-05-28T03:25:24;8.90;99.90
12887;DHT22;6511;49.746;6.094;2023-05-28T03:27:50;8.80;99.90
12887;DHT22;6511;49.746;6.094;2023-05-28T03:30:15;8.60;99.90
12887;DHT22;6511;49.746;6.094;2023-05-28T03:32:41;8.60;99.90
12887;DHT22;6511;49.746;6.094;2023-05-28T03:35:06;8.50;99.90
12887;DHT22;6511;49.746;6.094;2023-05-28T03:37:33;8.50;99.90
12887;DHT22;6511;49.746;6.094;2023-05-28T03:39:58;8.60;99.90
12887;DHT22;6511;49.746;6.094;2023-05-28T03:42:24;8.50;99.90
12887;DHT22;6511;49.746;6.094;2023-05-28T03:44:49;8.40;99.90
12887;DHT22;6511;49.746;6.094;2023-05-28T03:47:15;8.40;99.90
12887;DHT22;6511;49.746;6.094;2023-05-28T03:49:41;8.40;99.90
12887;DHT22;6511;49.746;6.094;2023-05-28T03:52:06;8.50;99.90
12887;DHT22;6511;49.746;6.094;2023-05-28T03:54:32;8.50;99.90
12887;DHT22;6511;49.746;6.094;2023-05-28T03:56:58;8.50;99.90
12887;DHT22;6511;49.746;6.094;2023-05-28T03:59:24;8.40;99.90
12887;DHT22;6511;49.746;6.094;2023-05-28T04:01:49;8.40;99.90
12887;DHT22;6511;49.746;6.094;2023-05-28T04:04:15;8.30;99.90
12887;DHT22;6511;49.746;6.094;2023-05-28T04:06:41;8.30;99.90
12887;DHT22;6511;49.746;6.094;2023-05-28T04:09:07;8.20;99.90
12887;DHT22;6511;49.746;6.094;2023-05-28T04:11:33;8.20;99.90
12887;DHT22;6511;49.746;6.094;2023-05-28T04:14:00;8.40;99.90
12887;DHT22;6511;49.746;6.094;2023-05-28T04:16:26;8.50;99.90
12887;DHT22;6511;49.746;6.094;2023-05-28T04:18:52;8.70;99.90
12887;DHT22;6511;49.746;6.094;2023-05-28T04:21:21;8.70;99.90
12887;DHT22;6511;49.746;6.094;2023-05-28T04:23:47;8.80;99.90
12887;DHT22;6511;49.746;6.094;2023-05-28T04:26:13;8.80;99.90
12887;DHT22;6511;49.746;6.094;2023-05-28T04:28:40;8.70;99.90
12887;DHT22;6511;49.746;6.094;2023-05-28T04:31:06;8.80;99.90
12887;DHT22;6511;49.746;6.094;2023-05-28T04:33:31;8.70;99.90
12887;DHT22;6511;49.746;6.094;2023-05-28T04:35:58;8.80;99.90
12887;DHT22;6511;49.746;6.094;2023-05-28T04:38:24;8.90;99.90
12887;DHT22;6511;49.746;6.094;2023-05-28T04:40:50;8.90;99.90
12887;DHT22;6511;49.746;6.094;2023-05-28T04:43:15;8.90;99.90
12887;DHT22;6511;49.746;6.094;2023-05-28T04:45:41;8.90;99.90
12887;DHT22;6511;49.746;6.094;2023-05-28T04:48:07;9.00;99.90
12887;DHT22;6511;49.746;6.094;2023-05-28T04:50:32;9.00;99.90
12887;DHT22;6511;49.746;6.094;2023-05-28T04:52:58;9.10;99.90
12887;DHT22;6511;49.746;6.094;2023-05-28T04:55:23;9.10;99.90
12887;DHT22;6511;49.746;6.094;2023-05-28T04:57:49;9.20;99.90
12887;DHT22;6511;49.746;6.094;2023-05-28T05:00:15;9.20;99.90
12887;DHT22;6511;49.746;6.094;2023-05-28T05:02:40;9.20;99.90
12887;DHT22;6511;49.746;6.094;2023-05-28T05:05:06;9.30;99.90
12887;DHT22;6511;49.746;6.094;2023-05-28T05:07:36;9.30;99.90
12887;DHT22;6511;49.746;6.094;2023-05-28T05:10:02;9.40;99.90
12887;DHT22;6511;49.746;6.094;2023-05-28T05:12:28;9.50;99.90
12887;DHT22;6511;49.746;6.094;2023-05-28T05:14:53;9.60;99.90
12887;DHT22;6511;49.746;6.094;2023-05-28T05:17:19;9.70;99.90
12887;DHT22;6511;49.746;6.094;2023-05-28T05:19:44;9.80;99.90
12887;DHT22;6511;49.746;6.094;2023-05-28T05:22:10;9.80;99.90
12887;DHT22;6511;49.746;6.094;2023-05-28T05:24:36;9.90;99.90
12887;DHT22;6511;49.746;6.094;2023-05-28T05:27:01;9.90;99.90
12887;DHT22;6511;49.746;6.094;2023-05-28T05:29:27;10.00;99.90
12887;DHT22;6511;49.746;6.094;2023-05-28T05:31:52;10.10;99.90
12887;DHT22;6511;49.746;6.094;2023-05-28T05:34:18;10.20;99.90
12887;DHT22;6511;49.746;6.094;2023-05-28T05:36:43;10.30;99.90
12887;DHT22;6511;49.746;6.094;2023-05-28T05:39:09;10.40;99.90
12887;DHT22;6511;49.746;6.094;2023-05-28T05:41:35;10.40;99.90
12887;DHT22;6511;49.746;6.094;2023-05-28T05:44:00;10.50;99.90
12887;DHT22;6511;49.746;6.094;2023-05-28T05:46:26;10.60;99.90
12887;DHT22;6511;49.746;6.094;2023-05-28T05:48:51;10.70;99.90
12887;DHT22;6511;49.746;6.094;2023-05-28T05:51:17;10.80;99.90
12887;DHT22;6511;49.746;6.094;2023-05-28T05:53:44;11.00;99.90
12887;DHT22;6511;49.746;6.094;2023-05-28T05:56:09;11.10;99.90
12887;DHT22;6511;49.746;6.094;2023-05-28T05:58:35;11.30;99.90
12887;DHT22;6511;49.746;6.094;2023-05-28T06:01:01;11.40;99.90
12887;DHT22;6511;49.746;6.094;2023-05-28T06:03:27;11.40;99.90
12887;DHT22;6511;49.746;6.094;2023-05-28T06:05:53;11.50;99.90
12887;DHT22;6511;49.746;6.094;2023-05-28T06:08:18;11.70;99.90
12887;DHT22;6511;49.746;6.094;2023-05-28T06:10:44;11.80;99.90
12887;DHT22;6511;49.746;6.094;2023-05-28T06:13:10;11.90;99.90
12887;DHT22;6511;49.746;6.094;2023-05-28T06:15:35;12.00;99.90
12887;DHT22;6511;49.746;6.094;2023-05-28T06:18:02;12.20;99.90
12887;DHT22;6511;49.746;6.094;2023-05-28T06:20:28;12.20;99.90
12887;DHT22;6511;49.746;6.094;2023-05-28T06:22:54;12.30;99.90
12887;DHT22;6511;49.746;6.094;2023-05-28T06:25:21;12.40;99.90
12887;DHT22;6511;49.746;6.094;2023-05-28T06:27:47;12.50;99.90
12887;DHT22;6511;49.746;6.094;2023-05-28T06:30:13;12.60;99.90
12887;DHT22;6511;49.746;6.094;2023-05-28T06:32:40;12.80;99.90
12887;DHT22;6511;49.746;6.094;2023-05-28T06:35:06;13.00;99.90
12887;DHT22;6511;49.746;6.094;2023-05-28T06:37:32;13.20;99.90
12887;DHT22;6511;49.746;6.094;2023-05-28T06:39:57;13.30;99.90
12887;DHT22;6511;49.746;6.094;2023-05-28T06:42:23;13.50;99.90
12887;DHT22;6511;49.746;6.094;2023-05-28T06:44:48;13.70;99.90
12887;DHT22;6511;49.746;6.094;2023-05-28T06:47:14;13.80;99.90
12887;DHT22;6511;49.746;6.094;2023-05-28T06:49:39;13.90;99.90
12887;DHT22;6511;49.746;6.094;2023-05-28T06:52:05;14.00;99.90
12887;DHT22;6511;49.746;6.094;2023-05-28T06:54:30;14.30;99.90
12887;DHT22;6511;49.746;6.094;2023-05-28T06:56:56;14.30;99.90
12887;DHT22;6511;49.746;6.094;2023-05-28T06:59:21;14.40;99.90
12887;DHT22;6511;49.746;6.094;2023-05-28T07:01:47;14.40;99.90
12887;DHT22;6511;49.746;6.094;2023-05-28T07:04:12;14.50;99.90
12887;DHT22;6511;49.746;6.094;2023-05-28T07:06:38;14.60;99.90
12887;DHT22;6511;49.746;6.094;2023-05-28T07:09:04;14.60;99.90
12887;DHT22;6511;49.746;6.094;2023-05-28T07:11:29;14.60;99.90
12887;DHT22;6511;49.746;6.094;2023-05-28T07:13:55;14.90;99.90
12887;DHT22;6511;49.746;6.094;2023-05-28T07:16:21;15.10;99.90
12887;DHT22;6511;49.746;6.094;2023-05-28T07:18:46;15.30;99.90
12887;DHT22;6511;49.746;6.094;2023-05-28T07:21:12;15.40;99.90
12887;DHT22;6511;49.746;6.094;2023-05-28T07:23:37;15.40;99.90
12887;DHT22;6511;49.746;6.094;2023-05-28T07:26:03;15.50;99.90
12887;DHT22;6511;49.746;6.094;2023-05-28T07:28:28;15.70;99.90
12887;DHT22;6511;49.746;6.094;2023-05-28T07:30:54;15.80;99.90
12887;DHT22;6511;49.746;6.094;2023-05-28T07:33:19;15.90;99.90
12887;DHT22;6511;49.746;6.094;2023-05-28T07:35:45;16.00;99.90
12887;DHT22;6511;49.746;6.094;2023-05-28T07:38:11;16.20;99.90
12887;DHT22;6511;49.746;6.094;2023-05-28T07:40:38;16.20;99.90
12887;DHT22;6511;49.746;6.094;2023-05-28T07:43:03;16.30;99.90
12887;DHT22;6511;49.746;6.094;2023-05-28T07:45:29;16.40;99.90
12887;DHT22;6511;49.746;6.094;2023-05-28T07:47:54;16.50;99.90
12887;DHT22;6511;49.746;6.094;2023-05-28T07:50:20;16.50;99.90
12887;DHT22;6511;49.746;6.094;2023-05-28T07:52:45;16.70;99.90
12887;DHT22;6511;49.746;6.094;2023-05-28T07:55:12;16.60;99.90
12887;DHT22;6511;49.746;6.094;2023-05-28T07:57:38;16.70;99.90
12887;DHT22;6511;49.746;6.094;2023-05-28T08:00:03;16.80;99.90
12887;DHT22;6511;49.746;6.094;2023-05-28T08:02:35;17.00;99.90
12887;DHT22;6511;49.746;6.094;2023-05-28T08:05:00;17.00;99.90
12887;DHT22;6511;49.746;6.094;2023-05-28T08:07:29;17.10;99.90
12887;DHT22;6511;49.746;6.094;2023-05-28T08:09:55;17.30;99.90
12887;DHT22;6511;49.746;6.094;2023-05-28T08:12:20;17.40;99.90
12887;DHT22;6511;49.746;6.094;2023-05-28T08:14:46;17.40;99.90
12887;DHT22;6511;49.746;6.094;2023-05-28T08:17:11;17.50;99.90
12887;DHT22;6511;49.746;6.094;2023-05-28T08:19:37;17.60;99.90
12887;DHT22;6511;49.746;6.094;2023-05-28T08:22:04;17.50;99.90
12887;DHT22;6511;49.746;6.094;2023-05-28T08:24:29;17.70;99.90
12887;DHT22;6511;49.746;6.094;2023-05-28T08:26:55;17.70;99.90
12887;DHT22;6511;49.746;6.094;2023-05-28T08:29:21;17.80;99.90
12887;DHT22;6511;49.746;6.094;2023-05-28T08:31:46;17.80;99.90
12887;DHT22;6511;49.746;6.094;2023-05-28T08:34:12;17.80;99.90
12887;DHT22;6511;49.746;6.094;2023-05-28T08:36:37;18.20;99.90
12887;DHT22;6511;49.746;6.094;2023-05-28T08:39:03;18.20;99.90
12887;DHT22;6511;49.746;6.094;2023-05-28T08:41:29;18.40;99.90
12887;DHT22;6511;49.746;6.094;2023-05-28T08:43:55;18.70;99.90
12887;DHT22;6511;49.746;6.094;2023-05-28T08:46:21;18.90;99.90
12887;DHT22;6511;49.746;6.094;2023-05-28T08:48:47;18.80;99.90
12887;DHT22;6511;49.746;6.094;2023-05-28T08:51:13;18.90;99.90
12887;DHT22;6511;49.746;6.094;2023-05-28T08:53:46;19.00;99.90
12887;DHT22;6511;49.746;6.094;2023-05-28T08:56:11;19.30;99.90
12887;DHT22;6511;49.746;6.094;2023-05-28T08:58:38;19.40;99.90
12887;DHT22;6511;49.746;6.094;2023-05-28T09:01:04;19.40;99.90
12887;DHT22;6511;49.746;6.094;2023-05-28T09:03:32;19.70;99.90
12887;DHT22;6511;49.746;6.094;2023-05-28T09:05:57;19.60;99.90
12887;DHT22;6511;49.746;6.094;2023-05-28T09:08:23;19.70;99.90
12887;DHT22;6511;49.746;6.094;2023-05-28T09:10:48;19.80;99.90
12887;DHT22;6511;49.746;6.094;2023-05-28T09:13:14;19.90;99.90
12887;DHT22;6511;49.746;6.094;2023-05-28T09:15:40;19.90;99.90
12887;DHT22;6511;49.746;6.094;2023-05-28T09:18:07;20.10;99.90
12887;DHT22;6511;49.746;6.094;2023-05-28T09:20:33;20.10;99.90
12887;DHT22;6511;49.746;6.094;2023-05-28T09:23:05;20.30;99.90
12887;DHT22;6511;49.746;6.094;2023-05-28T09:25:35;20.30;99.90
12887;DHT22;6511;49.746;6.094;2023-05-28T09:28:01;20.30;99.90
12887;DHT22;6511;49.746;6.094;2023-05-28T09:30:27;20.10;99.90
12887;DHT22;6511;49.746;6.094;2023-05-28T09:33:04;20.30;99.90
12887;DHT22;6511;49.746;6.094;2023-05-28T09:35:31;20.30;99.90
12887;DHT22;6511;49.746;6.094;2023-05-28T09:38:00;20.20;99.90
12887;DHT22;6511;49.746;6.094;2023-05-28T09:40:26;20.30;99.90
12887;DHT22;6511;49.746;6.094;2023-05-28T09:42:51;20.60;99.90
12887;DHT22;6511;49.746;6.094;2023-05-28T09:45:21;20.60;99.90
12887;DHT22;6511;49.746;6.094;2023-05-28T09:47:47;20.60;99.90
12887;DHT22;6511;49.746;6.094;2023-05-28T09:50:12;20.50;99.90
12887;DHT22;6511;49.746;6.094;2023-05-28T09:52:38;20.50;99.90
12887;DHT22;6511;49.746;6.094;2023-05-28T09:55:06;20.60;99.90
12887;DHT22;6511;49.746;6.094;2023-05-28T09:57:32;20.70;99.90
12887;DHT22;6511;49.746;6.094;2023-05-28T09:59:59;20.90;99.90
12887;DHT22;6511;49.746;6.094;2023-05-28T10:05:10;20.90;99.90
12887;DHT22;6511;49.746;6.094;2023-05-28T10:07:39;20.80;99.90
12887;DHT22;6511;49.746;6.094;2023-05-28T10:10:06;21.00;99.90
12887;DHT22;6511;49.746;6.094;2023-05-28T10:12:33;21.10;99.90
12887;DHT22;6511;49.746;6.094;2023-05-28T10:14:58;21.00;99.90
12887;DHT22;6511;49.746;6.094;2023-05-28T10:17:25;20.80;99.90
12887;DHT22;6511;49.746;6.094;2023-05-28T10:19:51;20.90;99.90
12887;DHT22;6511;49.746;6.094;2023-05-28T10:22:16;21.10;99.90
12887;DHT22;6511;49.746;6.094;2023-05-28T10:24:42;21.00;99.90
12887;DHT22;6511;49.746;6.094;2023-05-28T10:27:12;20.90;99.90
12887;DHT22;6511;49.746;6.094;2023-05-28T10:29:38;21.00;99.90
12887;DHT22;6511;49.746;6.094;2023-05-28T10:32:04;21.20;99.90
12887;DHT22;6511;49.746;6.094;2023-05-28T10:34:30;21.10;99.90
12887;DHT22;6511;49.746;6.094;2023-05-28T10:36:57;21.00;99.90
12887;DHT22;6511;49.746;6.094;2023-05-28T10:39:25;21.10;99.90
12887;DHT22;6511;49.746;6.094;2023-05-28T10:41:50;21.30;99.90
12887;DHT22;6511;49.746;6.094;2023-05-28T10:44:16;21.20;99.90
12887;DHT22;6511;49.746;6.094;2023-05-28T10:46:43;21.30;99.90
12887;DHT22;6511;49.746;6.094;2023-05-28T10:49:13;21.50;99.90
12887;DHT22;6511;49.746;6.094;2023-05-28T10:54:14;21.70;99.90
12887;DHT22;6511;49.746;6.094;2023-05-28T10:57:05;21.40;99.90
12887;DHT22;6511;49.746;6.094;2023-05-28T11:00:11;21.40;99.90
12887;DHT22;6511;49.746;6.094;2023-05-28T11:02:12;21.40;99.90
12887;DHT22;6511;49.746;6.094;2023-05-28T11:04:38;21.70;99.90
12887;DHT22;6511;49.746;6.094;2023-05-28T11:07:05;21.80;99.90
12887;DHT22;6511;49.746;6.094;2023-05-28T11:09:30;21.70;99.90
12887;DHT22;6511;49.746;6.094;2023-05-28T11:12:00;21.70;99.90
12887;DHT22;6511;49.746;6.094;2023-05-28T11:14:37;21.80;99.90
12887;DHT22;6511;49.746;6.094;2023-05-28T11:17:09;21.80;99.90
12887;DHT22;6511;49.746;6.094;2023-05-28T11:19:42;21.80;99.90
12887;DHT22;6511;49.746;6.094;2023-05-28T11:22:08;22.00;99.90
12887;DHT22;6511;49.746;6.094;2023-05-28T11:27:14;22.10;99.90
12887;DHT22;6511;49.746;6.094;2023-05-28T11:29:40;22.00;99.90
12887;DHT22;6511;49.746;6.094;2023-05-28T11:32:06;22.00;99.90
12887;DHT22;6511;49.746;6.094;2023-05-28T11:34:32;22.20;99.90
12887;DHT22;6511;49.746;6.094;2023-05-28T11:36:58;22.40;99.90
12887;DHT22;6511;49.746;6.094;2023-05-28T11:39:24;22.30;99.90
12887;DHT22;6511;49.746;6.094;2023-05-28T11:41:49;22.10;99.90
12887;DHT22;6511;49.746;6.094;2023-05-28T11:44:22;22.10;99.90
12887;DHT22;6511;49.746;6.094;2023-05-28T11:46:54;22.10;99.90
12887;DHT22;6511;49.746;6.094;2023-05-28T11:49:20;22.30;99.90
12887;DHT22;6511;49.746;6.094;2023-05-28T11:51:46;22.40;99.90
12887;DHT22;6511;49.746;6.094;2023-05-28T11:54:12;22.40;99.90
12887;DHT22;6511;49.746;6.094;2023-05-28T11:56:37;22.30;99.90
12887;DHT22;6511;49.746;6.094;2023-05-28T11:59:03;22.40;99.90
12887;DHT22;6511;49.746;6.094;2023-05-28T12:01:31;22.50;99.90
12887;DHT22;6511;49.746;6.094;2023-05-28T12:04:06;22.50;99.90
12887;DHT22;6511;49.746;6.094;2023-05-28T12:06:32;22.70;99.90
12887;DHT22;6511;49.746;6.094;2023-05-28T12:09:07;22.80;99.90
12887;DHT22;6511;49.746;6.094;2023-05-28T12:11:33;22.70;99.90
12887;DHT22;6511;49.746;6.094;2023-05-28T12:14:07;22.80;99.90
12887;DHT22;6511;49.746;6.094;2023-05-28T12:16:41;22.80;99.90
12887;DHT22;6511;49.746;6.094;2023-05-28T12:19:07;22.60;99.90
12887;DHT22;6511;49.746;6.094;2023-05-28T12:21:38;22.80;99.90
12887;DHT22;6511;49.746;6.094;2023-05-28T12:24:10;22.90;99.90
12887;DHT22;6511;49.746;6.094;2023-05-28T12:26:36;22.90;99.90
12887;DHT22;6511;49.746;6.094;2023-05-28T12:29:01;22.60;99.90
12887;DHT22;6511;49.746;6.094;2023-05-28T12:31:27;22.70;99.90
12887;DHT22;6511;49.746;6.094;2023-05-28T12:33:53;23.10;99.90
12887;DHT22;6511;49.746;6.094;2023-05-28T12:36:19;23.20;99.90
12887;DHT22;6511;49.746;6.094;2023-05-28T12:38:46;23.10;99.90
12887;DHT22;6511;49.746;6.094;2023-05-28T12:41:11;22.80;99.90
12887;DHT22;6511;49.746;6.094;2023-05-28T12:43:37;22.80;99.90
12887;DHT22;6511;49.746;6.094;2023-05-28T12:46:02;22.90;99.90
12887;DHT22;6511;49.746;6.094;2023-05-28T12:48:28;22.80;99.90
12887;DHT22;6511;49.746;6.094;2023-05-28T12:50:53;22.80;99.90
12887;DHT22;6511;49.746;6.094;2023-05-28T12:53:19;22.90;99.90
12887;DHT22;6511;49.746;6.094;2023-05-28T12:55:44;23.10;99.90
12887;DHT22;6511;49.746;6.094;2023-05-28T12:58:10;23.10;99.90
12887;DHT22;6511;49.746;6.094;2023-05-28T13:00:36;23.20;99.90
12887;DHT22;6511;49.746;6.094;2023-05-28T13:03:01;23.10;99.90
12887;DHT22;6511;49.746;6.094;2023-05-28T13:05:28;23.00;99.90
12887;DHT22;6511;49.746;6.094;2023-05-28T13:07:54;23.00;99.90
12887;DHT22;6511;49.746;6.094;2023-05-28T13:10:21;23.10;99.90
12887;DHT22;6511;49.746;6.094;2023-05-28T13:12:46;23.00;99.90
12887;DHT22;6511;49.746;6.094;2023-05-28T13:15:12;23.20;99.90
12887;DHT22;6511;49.746;6.094;2023-05-28T13:17:38;23.20;99.90
12887;DHT22;6511;49.746;6.094;2023-05-28T13:20:03;23.30;99.90
12887;DHT22;6511;49.746;6.094;2023-05-28T13:22:35;23.30;99.90
12887;DHT22;6511;49.746;6.094;2023-05-28T13:25:06;23.30;99.90
12887;DHT22;6511;49.746;6.094;2023-05-28T13:27:32;23.30;99.90
12887;DHT22;6511;49.746;6.094;2023-05-28T13:29:58;23.30;99.90
12887;DHT22;6511;49.746;6.094;2023-05-28T13:32:23;23.40;99.90
12887;DHT22;6511;49.746;6.094;2023-05-28T13:34:49;23.40;99.90
12887;DHT22;6511;49.746;6.094;2023-05-28T13:37:14;23.50;99.90
12887;DHT22;6511;49.746;6.094;2023-05-28T13:39:40;23.60;99.90
12887;DHT22;6511;49.746;6.094;2023-05-28T13:42:06;23.90;99.90
12887;DHT22;6511;49.746;6.094;2023-05-28T13:44:32;23.90;99.90
12887;DHT22;6511;49.746;6.094;2023-05-28T13:46:58;23.70;99.90
12887;DHT22;6511;49.746;6.094;2023-05-28T13:49:23;23.80;99.90
12887;DHT22;6511;49.746;6.094;2023-05-28T13:51:49;23.70;99.90
12887;DHT22;6511;49.746;6.094;2023-05-28T13:54:15;23.90;99.90
12887;DHT22;6511;49.746;6.094;2023-05-28T13:56:41;23.90;99.90
12887;DHT22;6511;49.746;6.094;2023-05-28T13:59:06;24.00;99.90
12887;DHT22;6511;49.746;6.094;2023-05-28T14:01:32;23.80;99.90
12887;DHT22;6511;49.746;6.094;2023-05-28T14:03:57;24.10;99.90
12887;DHT22;6511;49.746;6.094;2023-05-28T14:06:23;24.10;99.90
12887;DHT22;6511;49.746;6.094;2023-05-28T14:08:48;24.20;99.90
12887;DHT22;6511;49.746;6.094;2023-05-28T14:11:14;24.00;99.90
12887;DHT22;6511;49.746;6.094;2023-05-28T14:13:39;24.00;99.90
12887;DHT22;6511;49.746;6.094;2023-05-28T14:16:05;24.10;99.90
12887;DHT22;6511;49.746;6.094;2023-05-28T14:18:30;24.00;99.90
12887;DHT22;6511;49.746;6.094;2023-05-28T14:20:56;24.00;99.90
12887;DHT22;6511;49.746;6.094;2023-05-28T14:23:22;24.20;99.90
12887;DHT22;6511;49.746;6.094;2023-05-28T14:25:47;24.20;99.90
12887;DHT22;6511;49.746;6.094;2023-05-28T14:28:13;24.20;99.90
12887;DHT22;6511;49.746;6.094;2023-05-28T14:30:38;24.10;99.90
12887;DHT22;6511;49.746;6.094;2023-05-28T14:33:04;24.10;99.90
12887;DHT22;6511;49.746;6.094;2023-05-28T14:35:29;24.10;99.90
12887;DHT22;6511;49.746;6.094;2023-05-28T14:37:55;24.30;99.90
12887;DHT22;6511;49.746;6.094;2023-05-28T14:40:20;24.40;99.90
12887;DHT22;6511;49.746;6.094;2023-05-28T14:42:46;24.50;99.90
12887;DHT22;6511;49.746;6.094;2023-05-28T14:45:12;24.50;99.90
12887;DHT22;6511;49.746;6.094;2023-05-28T14:47:38;24.50;99.90
12887;DHT22;6511;49.746;6.094;2023-05-28T14:50:04;24.50;99.90
12887;DHT22;6511;49.746;6.094;2023-05-28T14:52:30;24.40;99.90
12887;DHT22;6511;49.746;6.094;2023-05-28T14:54:56;24.50;99.90
12887;DHT22;6511;49.746;6.094;2023-05-28T14:57:25;24.40;99.90
12887;DHT22;6511;49.746;6.094;2023-05-28T15:00:01;24.30;99.90
12887;DHT22;6511;49.746;6.094;2023-05-28T15:02:35;24.40;99.90
12887;DHT22;6511;49.746;6.094;2023-05-28T15:05:00;24.30;99.90
12887;DHT22;6511;49.746;6.094;2023-05-28T15:07:26;24.30;99.90
12887;DHT22;6511;49.746;6.094;2023-05-28T15:09:51;24.50;99.90
12887;DHT22;6511;49.746;6.094;2023-05-28T15:12:17;24.30;99.90
12887;DHT22;6511;49.746;6.094;2023-05-28T15:14:43;24.60;99.90
12887;DHT22;6511;49.746;6.094;2023-05-28T15:17:08;24.60;99.90
12887;DHT22;6511;49.746;6.094;2023-05-28T15:19:34;24.50;99.90
12887;DHT22;6511;49.746;6.094;2023-05-28T15:21:59;24.50;99.90
12887;DHT22;6511;49.746;6.094;2023-05-28T15:24:25;24.30;99.90
12887;DHT22;6511;49.746;6.094;2023-05-28T15:26:50;24.40;99.90
12887;DHT22;6511;49.746;6.094;2023-05-28T15:29:16;24.40;99.90
12887;DHT22;6511;49.746;6.094;2023-05-28T15:31:46;24.30;99.90
12887;DHT22;6511;49.746;6.094;2023-05-28T15:34:12;24.30;99.90
12887;DHT22;6511;49.746;6.094;2023-05-28T15:36:38;24.40;99.90
12887;DHT22;6511;49.746;6.094;2023-05-28T15:39:04;24.40;99.90
12887;DHT22;6511;49.746;6.094;2023-05-28T15:41:30;24.40;99.90
12887;DHT22;6511;49.746;6.094;2023-05-28T15:43:56;24.20;99.90
12887;DHT22;6511;49.746;6.094;2023-05-28T15:46:21;24.30;99.90
12887;DHT22;6511;49.746;6.094;2023-05-28T15:48:47;24.10;99.90
12887;DHT22;6511;49.746;6.094;2023-05-28T15:51:12;24.20;99.90